Happy, Kentucky
Current Conditions -  °F | °C
As of 11:55 AM on Monday 22 Dec 2014 (Local Time) from KI35 Reporting Station
Clear Clear  
Wind Chill: 54°   Ceiling: Unl
Heat Index: 54°   Visibility: 10mi
Dew Point: 39°   Wind: 5mph
Humidity: 58%   Direction: 40°NE
Pressure: 29.95"   Gusts: NA
Location:  37.2°N, 83.1°W
Report Text: KI35 221655Z AUTO 04004KT 10SM CLR 12/04 A2995 RMK AO1
Loading
Personal Weather Stations






























Interactive Weather Map New forecast layout! Learn more

10-Day Weather Forecast

Advertisements
Track Severe Weather on mobile